TimeEST,TemperatureF,Dew PointF,Humidity,Sea Level PressureIn,VisibilityMPH,Wind Direction,Wind SpeedMPH,Gust SpeedMPH,PrecipitationIn,Events,Conditions,WindDirDegrees,DateUTC
12:55 AM,27.3,24.8,90,29.98,10.0,Calm,Calm,-,N/A,,Mostly Cloudy,0,2013-02-15 05:55:00
1:55 AM,24.6,23.2,94,29.98,7.0,Calm,Calm,-,N/A,,Partly Cloudy,0,2013-02-15 06:55:00
2:55 AM,25.3,22.6,89,29.97,7.0,Calm,Calm,-,N/A,,Partly Cloudy,0,2013-02-15 07:55:00
3:55 AM,23.9,21.2,89,29.97,7.0,South,4.6,-,N/A,,Partly Cloudy,170,2013-02-15 08:55:00
4:55 AM,25.5,20.8,82,29.97,7.0,Calm,Calm,-,N/A,,Scattered Clouds,0,2013-02-15 09:55:00
5:55 AM,23.9,20.1,85,29.97,7.0,SSE,3.5,-,N/A,,Mostly Cloudy,160,2013-02-15 10:55:00
6:55 AM,26.4,22.8,86,29.98,10.0,SW,3.5,-,N/A,,Mostly Cloudy,220,2013-02-15 11:55:00
7:55 AM,28.2,24.6,86,29.97,6.0,SSE,4.6,-,N/A,,Mostly Cloudy,160,2013-02-15 12:55:00
8:55 AM,33.6,27.5,78,29.98,7.0,SSW,4.6,-,N/A,,Mostly Cloudy,210,2013-02-15 13:55:00
9:55 AM,37.6,28.0,68,29.98,10.0,WSW,4.6,-,N/A,,Mostly Cloudy,240,2013-02-15 14:55:00
10:55 AM,42.4,27.9,56,29.96,7.0,Variable,5.8,-,N/A,,Mostly Cloudy,0,2013-02-15 15:55:00
11:12 AM,42.8,28.4,57,29.94,7.0,SW,9.2,-,N/A,,Mostly Cloudy,220,2013-02-15 16:12:00
11:55 AM,44.2,27.9,53,29.94,7.0,South,9.2,-,N/A,,Scattered Clouds,180,2013-02-15 16:55:00
12:55 PM,45.9,28.4,51,29.91,7.0,South,8.1,-,N/A,,Scattered Clouds,190,2013-02-15 17:55:00
1:55 PM,47.5,28.4,48,29.89,10.0,South,12.7,-,N/A,,Partly Cloudy,180,2013-02-15 18:55:00
2:55 PM,48.4,28.4,46,29.88,10.0,SSW,10.4,-,N/A,,Partly Cloudy,210,2013-02-15 19:55:00
3:55 PM,48.6,28.6,46,29.88,10.0,SW,10.4,-,N/A,,Partly Cloudy,220,2013-02-15 20:55:00
4:55 PM,45.1,30.9,58,29.89,10.0,South,5.8,-,N/A,,Partly Cloudy,180,2013-02-15 21:55:00
5:55 PM,40.5,32.2,72,29.89,10.0,SSE,8.1,-,N/A,,Partly Cloudy,150,2013-02-15 22:55:00
6:55 PM,41.0,32.7,72,29.90,10.0,South,5.8,-,N/A,,Partly Cloudy,170,2013-02-15 23:55:00
7:55 PM,40.5,32.0,72,29.92,10.0,WSW,4.6,-,N/A,,Scattered Clouds,250,2013-02-16 00:55:00
8:55 PM,37.6,28.2,69,29.93,10.0,West,5.8,-,N/A,,Partly Cloudy,270,2013-02-16 01:55:00
9:55 PM,36.1,26.6,68,29.94,10.0,Calm,Calm,-,N/A,,Partly Cloudy,0,2013-02-16 02:55:00
10:55 PM,33.4,25.3,72,29.93,10.0,Calm,Calm,-,N/A,,Mostly Cloudy,0,2013-02-16 03:55:00
11:55 PM,30.7,26.2,83,29.93,10.0,Calm,Calm,-,N/A,,Mostly Cloudy,0,2013-02-16 04:55:00